Time;durP1;ratioP1;P1;durP2;ratioP2;P2;SDS_P1;SDS_P2;PMS_P1;PMS_P2;Temp;Humidity;BMP_temperature;BMP_pressure;BME280_temperature;BME280_humidity;BME280_pressure;Samples;Min_cycle;Max_cycle;Signal;HPM_P1;HPM_P2
2020/12/30 00:01:24;;;;;;;0.98;0.60;;;;;;;22.68;40.62;94489.66;5026918;28;20418;-74
2020/12/30 00:03:50;;;;;;;1.50;0.60;;;;;;;22.64;40.37;94472.88;5009708;28;20026;-74
2020/12/30 00:06:17;;;;;;;0.98;0.63;;;;;;;22.58;40.27;94469.50;5012644;28;20466;-74
2020/12/30 00:08:43;;;;;;;1.30;0.70;;;;;;;22.55;40.56;94465.09;5009552;28;20029;-74
2020/12/30 00:11:08;;;;;;;1.58;0.85;;;;;;;22.46;40.71;94468.19;5008859;28;20029;-74
2020/12/30 00:13:34;;;;;;;1.52;0.77;;;;;;;22.61;40.51;94507.28;5011190;28;20018;-74
2020/12/30 00:15:59;;;;;;;1.38;0.70;;;;;;;22.56;40.59;94493.78;5012376;28;20081;-73
2020/12/30 00:18:24;;;;;;;1.27;0.70;;;;;;;22.57;40.53;94489.78;5013689;28;20021;-73
2020/12/30 00:20:50;;;;;;;1.20;0.60;;;;;;;22.56;40.56;94472.00;5015098;28;20111;-72
2020/12/30 00:23:15;;;;;;;1.48;0.75;;;;;;;22.55;40.54;94481.41;5014984;28;20056;-73
2020/12/30 00:25:41;;;;;;;1.17;0.60;;;;;;;22.53;40.80;94511.13;5015041;28;20084;-72
2020/12/30 00:28:06;;;;;;;1.23;0.57;;;;;;;22.53;40.73;94505.69;5013042;28;20057;-74
2020/12/30 00:30:32;;;;;;;1.33;0.60;;;;;;;22.49;40.67;94483.47;5012314;28;20030;-74
2020/12/30 00:32:57;;;;;;;1.60;0.85;;;;;;;22.46;40.96;94485.22;5023010;28;20056;-74
2020/12/30 00:35:23;;;;;;;1.58;0.90;;;;;;;22.30;40.68;94482.75;5032597;28;20417;-74
2020/12/30 00:37:48;;;;;;;1.13;0.65;;;;;;;22.26;40.73;94482.31;5030777;28;20024;-74
2020/12/30 00:40:14;;;;;;;1.00;0.85;;;;;;;22.43;41.03;94515.47;5030940;28;20048;-74
2020/12/30 00:42:39;;;;;;;1.80;0.75;;;;;;;22.42;40.86;94484.09;5031489;28;20044;-74
2020/12/30 00:45:06;;;;;;;1.92;0.95;;;;;;;22.41;40.82;94498.19;5031504;28;20033;-74
2020/12/30 00:47:32;;;;;;;1.20;0.70;;;;;;;22.40;40.69;94489.28;5031250;28;20417;-74
2020/12/30 00:49:57;;;;;;;1.48;0.80;;;;;;;22.32;40.95;94447.59;5032249;28;20037;-74
2020/12/30 00:52:23;;;;;;;1.63;0.93;;;;;;;22.37;40.89;94484.88;5031695;28;20025;-74
2020/12/30 00:54:48;;;;;;;1.08;0.73;;;;;;;22.36;40.61;94497.03;5013517;28;20033;-74
2020/12/30 00:57:14;;;;;;;1.10;0.80;;;;;;;22.36;41.00;94496.28;5031403;28;20486;-74
2020/12/30 00:59:40;;;;;;;1.38;0.73;;;;;;;22.34;40.91;94494.06;5030950;28;20036;-74
2020/12/30 01:02:05;;;;;;;1.70;0.90;;;;;;;22.31;41.02;94467.16;5030799;28;20110;-74
2020/12/30 01:04:31;;;;;;;1.42;0.80;;;;;;;22.30;40.96;94482.75;5031011;28;20037;-73
2020/12/30 01:06:56;;;;;;;1.50;0.80;;;;;;;22.30;41.13;94488.19;5030492;28;20080;-73
2020/12/30 01:09:22;;;;;;;1.67;0.70;;;;;;;22.25;40.77;94480.81;5030872;28;20033;-74
2020/12/30 01:11:47;;;;;;;1.60;0.80;;;;;;;22.27;41.02;94489.22;5030793;28;20041;-74
2020/12/30 01:14:13;;;;;;;1.40;0.70;;;;;;;22.25;41.18;94486.25;5030602;28;20017;-73
2020/12/30 01:16:38;;;;;;;1.40;0.80;;;;;;;22.23;41.17;94472.44;5030731;28;20125;-73
2020/12/30 01:19:06;;;;;;;1.38;0.70;;;;;;;22.20;41.20;94484.34;5030453;28;20403;-73
2020/12/30 01:21:31;;;;;;;1.40;0.70;;;;;;;22.21;41.38;94472.25;5029981;28;20112;-73
2020/12/30 01:23:57;;;;;;;1.67;0.77;;;;;;;22.21;41.46;94463.34;5030189;28;20533;-71
2020/12/30 01:26:22;;;;;;;1.85;0.98;;;;;;;22.13;41.39;94455.00;5030870;28;20468;-73
2020/12/30 01:28:47;;;;;;;1.30;0.82;;;;;;;22.16;41.85;94456.69;5030894;28;20086;-73
2020/12/30 01:31:13;;;;;;;1.40;0.90;;;;;;;22.16;41.42;94451.25;5030601;28;20548;-74
2020/12/30 01:33:38;;;;;;;1.83;0.90;;;;;;;22.13;41.16;94457.72;5030172;28;20080;-76
2020/12/30 01:36:04;;;;;;;2.05;0.88;;;;;;;22.11;41.37;94443.91;5013090;28;20025;-73
2020/12/30 01:38:32;;;;;;;2.20;0.65;;;;;;;22.14;41.41;94448.31;5030963;28;20029;-73
2020/12/30 01:40:58;;;;;;;1.30;0.75;;;;;;;22.10;41.47;94447.88;5030775;28;20041;-73
2020/12/30 01:43:23;;;;;;;1.75;0.93;;;;;;;22.12;41.29;94456.25;5030521;28;20033;-76
2020/12/30 01:45:50;;;;;;;1.63;0.80;;;;;;;21.99;41.43;94441.84;5012625;28;20025;-74
2020/12/30 01:48:16;;;;;;;2.35;1.00;;;;;;;21.97;41.30;94450.53;5012859;28;20013;-74
2020/12/30 01:50:43;;;;;;;1.63;0.80;;;;;;;21.92;41.29;94420.69;5028945;28;20409;-73
2020/12/30 01:53:08;;;;;;;1.65;0.95;;;;;;;22.08;41.50;94444.94;5012702;28;20029;-74
2020/12/30 01:55:40;;;;;;;1.70;0.82;;;;;;;21.84;41.41;94416.31;5030280;28;20029;-73
2020/12/30 01:58:08;;;;;;;2.20;0.90;;;;;;;22.07;41.48;94465.19;5029103;28;20044;-74
2020/12/30 02:00:34;;;;;;;2.03;0.90;;;;;;;21.99;41.43;94431.69;5030332;28;20025;-74
2020/12/30 02:03:00;;;;;;;1.17;0.85;;;;;;;22.04;41.57;94433.59;5012809;28;20136;-74
2020/12/30 02:05:27;;;;;;;2.28;1.02;;;;;;;22.04;41.32;94449.91;5029968;28;20128;-74
2020/12/30 02:07:53;;;;;;;1.85;0.70;;;;;;;21.99;41.37;94434.41;5027971;28;20021;-75
2020/12/30 02:10:18;;;;;;;1.75;0.95;;;;;;;22.02;41.58;94422.53;5029495;28;20453;-73
2020/12/30 02:12:44;;;;;;;2.40;0.98;;;;;;;22.01;41.82;94442.78;5011893;28;20033;-74
2020/12/30 02:15:28;;;;;;;1.50;0.80;;;;;;;21.99;41.57;94442.56;5030478;28;20514;-74
2020/12/30 02:17:54;;;;;;;2.20;0.90;;;;;;;21.82;41.55;94389.66;4998011;28;20394;-73
2020/12/30 02:20:20;;;;;;;1.83;1.00;;;;;;;21.97;41.50;94417.91;5012518;28;20036;-74
2020/12/30 02:22:55;;;;;;;2.95;0.90;;;;;;;21.99;41.58;94426.25;5029689;28;20022;-74
2020/12/30 02:25:20;;;;;;;1.50;0.90;;;;;;;21.99;41.61;94425.53;5029912;28;20053;-73
2020/12/30 02:27:46;;;;;;;2.45;0.85;;;;;;;21.98;41.17;94434.94;5029347;28;20026;-74
2020/12/30 02:30:11;;;;;;;1.42;0.82;;;;;;;21.97;41.64;94436.94;5029266;28;20099;-73
2020/12/30 02:32:36;;;;;;;1.63;0.95;;;;;;;21.95;41.70;94425.81;5012230;28;20045;-72
2020/12/30 02:35:02;;;;;;;1.80;1.10;;;;;;;21.96;41.61;94416.41;5029713;28;20498;-73
2020/12/30 02:37:27;;;;;;;2.60;1.00;;;;;;;21.95;41.54;94397.91;5029489;28;20030;-73
2020/12/30 02:39:53;;;;;;;1.00;0.70;;;;;;;21.94;41.52;94421.63;5029717;28;20026;-73
2020/12/30 02:42:18;;;;;;;2.60;1.10;;;;;;;21.93;41.66;94439.19;5029694;28;20025;-74
2020/12/30 02:44:44;;;;;;;1.67;0.80;;;;;;;21.93;41.55;94422.88;5011811;28;20029;-73
2020/12/30 02:47:09;;;;;;;1.58;1.00;;;;;;;21.93;41.69;94412.00;5029422;28;20033;-73
2020/12/30 02:49:35;;;;;;;1.92;0.98;;;;;;;21.93;41.64;94412.00;5029379;28;20083;-73
2020/12/30 02:52:00;;;;;;;1.80;0.85;;;;;;;21.90;41.73;94414.28;5029931;28;20099;-73
2020/12/30 02:54:26;;;;;;;1.80;0.98;;;;;;;21.91;41.73;94418.47;5028804;28;20026;-73
2020/12/30 02:56:51;;;;;;;1.30;0.85;;;;;;;21.74;41.63;94377.19;5029371;28;20041;-73
2020/12/30 02:59:17;;;;;;;1.30;0.80;;;;;;;21.69;41.71;94402.47;5029660;28;20493;-73
2020/12/30 03:01:43;;;;;;;2.20;1.00;;;;;;;21.74;41.54;94404.38;5028468;28;20512;-74
2020/12/30 03:04:08;;;;;;;2.15;0.93;;;;;;;21.85;41.74;94380.47;5028512;28;20544;-73
2020/12/30 03:06:34;;;;;;;1.85;1.15;;;;;;;21.81;42.06;94387.47;5029742;28;20025;-73
2020/12/30 03:08:59;;;;;;;1.45;1.00;;;;;;;21.86;41.75;94413.84;5029475;28;20025;-73
2020/12/30 03:11:26;;;;;;;1.90;1.10;;;;;;;21.82;41.80;94399.81;5028856;28;20046;-73
2020/12/30 03:13:52;;;;;;;1.23;0.70;;;;;;;21.85;41.82;94415.09;5029468;28;20568;-74
2020/12/30 03:16:17;;;;;;;1.60;1.00;;;;;;;21.84;41.95;94397.31;5029318;28;20037;-73
2020/12/30 03:18:43;;;;;;;1.63;1.00;;;;;;;21.83;41.96;94418.31;5011449;28;20091;-73
2020/12/30 03:21:08;;;;;;;1.90;0.90;;;;;;;21.83;41.75;94409.44;5029145;28;20037;-73
2020/12/30 03:23:34;;;;;;;1.60;1.08;;;;;;;21.67;42.04;94377.75;5029222;28;20032;-73
2020/12/30 03:25:59;;;;;;;1.52;0.88;;;;;;;21.74;41.98;94421.38;5028793;28;20037;-72
2020/12/30 03:28:25;;;;;;;2.60;1.10;;;;;;;21.80;41.89;94407.75;5029289;28;20103;-73
2020/12/30 03:30:50;;;;;;;2.22;0.82;;;;;;;21.81;41.86;94387.47;5029049;28;20052;-74
2020/12/30 03:33:15;;;;;;;1.70;1.10;;;;;;;21.77;41.88;94435.94;5028729;28;20049;-74
2020/12/30 03:35:41;;;;;;;1.90;1.10;;;;;;;21.64;41.81;94367.91;5029067;28;20029;-74
2020/12/30 03:38:06;;;;;;;1.73;0.90;;;;;;;21.75;41.90;94394.94;5027674;28;20421;-73
2020/12/30 03:40:32;;;;;;;1.95;1.10;;;;;;;21.77;41.83;94403.34;5031707;28;20485;-74
2020/12/30 03:42:57;;;;;;;1.60;0.90;;;;;;;21.75;41.89;94417.44;5033097;28;20028;-74
2020/12/30 03:45:23;;;;;;;2.13;1.00;;;;;;;21.74;42.17;94366.31;5032786;28;20036;-73
2020/12/30 03:47:48;;;;;;;1.33;0.88;;;;;;;21.75;41.89;94411.25;5033102;28;20484;-74
2020/12/30 03:50:14;;;;;;;2.53;1.23;;;;;;;21.80;41.95;94380.56;5032732;28;20499;-74
2020/12/30 03:52:39;;;;;;;2.00;1.10;;;;;;;21.81;42.00;94398.31;5032794;28;20091;-74
2020/12/30 03:55:04;;;;;;;2.00;1.05;;;;;;;21.88;41.86;94386.88;5015260;28;20025;-74
2020/12/30 03:57:30;;;;;;;1.70;1.00;;;;;;;21.69;42.02;94365.13;5032199;28;20108;-73
2020/12/30 03:59:55;;;;;;;1.90;1.10;;;;;;;21.92;42.04;94405.09;5032894;28;20021;-73
2020/12/30 04:02:21;;;;;;;1.90;1.00;;;;;;;21.87;41.75;94390.84;5032772;28;20413;-74
2020/12/30 04:04:46;;;;;;;1.85;0.98;;;;;;;21.95;41.64;94371.44;5032535;28;20486;-75
2020/12/30 04:07:12;;;;;;;1.70;1.02;;;;;;;22.05;41.77;94416.06;5033006;28;20683;-74
2020/12/30 04:09:37;;;;;;;2.15;1.00;;;;;;;22.10;41.69;94409.06;5032538;28;20038;-74
2020/12/30 04:12:03;;;;;;;1.67;0.93;;;;;;;22.13;41.70;94402.59;5032749;28;20036;-75
2020/12/30 04:14:28;;;;;;;1.92;1.10;;;;;;;22.07;41.40;94345.56;5032427;28;20041;-74
2020/12/30 04:16:55;;;;;;;2.22;1.30;;;;;;;22.17;41.50;94398.34;5030471;28;20025;-74
2020/12/30 04:19:20;;;;;;;1.90;1.17;;;;;;;22.20;41.44;94410.91;5031498;28;20037;-74
2020/12/30 04:21:46;;;;;;;1.67;1.00;;;;;;;22.22;41.34;94389.38;5031308;28;20022;-74
2020/12/30 04:24:11;;;;;;;1.63;1.00;;;;;;;22.24;41.51;94403.22;5032331;28;20030;-74
2020/12/30 04:26:37;;;;;;;2.50;1.20;;;;;;;22.24;41.50;94391.59;5032291;28;20450;-74
2020/12/30 04:29:02;;;;;;;1.48;0.82;;;;;;;22.28;41.36;94387.31;5032541;28;20487;-74
2020/12/30 04:31:27;;;;;;;2.08;1.10;;;;;;;22.30;41.35;94425.63;5032242;28;20083;-74
2020/12/30 04:33:53;;;;;;;1.63;0.90;;;;;;;22.30;41.27;94384.84;5014208;28;20068;-74
2020/12/30 04:36:18;;;;;;;1.80;1.08;;;;;;;22.34;41.33;94396.13;5032317;28;20033;-75
2020/12/30 04:38:44;;;;;;;1.50;0.90;;;;;;;22.21;41.29;94382.50;5014033;28;20442;-74
2020/12/30 04:41:13;;;;;;;2.25;1.10;;;;;;;22.37;41.29;94372.63;5013436;28;20095;-74
2020/12/30 04:43:41;;;;;;;2.17;1.10;;;;;;;22.37;41.20;94411.44;5031817;28;20699;-74
2020/12/30 04:46:06;;;;;;;1.77;1.15;;;;;;;22.30;41.22;94395.72;5030067;28;20048;-74
2020/12/30 04:48:33;;;;;;;1.83;1.20;;;;;;;22.40;41.11;94328.06;5031294;28;20033;-75
2020/12/30 04:50:58;;;;;;;1.80;1.20;;;;;;;22.39;41.21;94392.63;5031151;28;20445;-74
2020/12/30 04:53:24;;;;;;;2.25;1.63;;;;;;;22.43;41.22;94398.47;5031307;28;20028;-74
2020/12/30 04:55:50;;;;;;;2.90;1.27;;;;;;;22.43;41.20;94393.03;5030647;28;20025;-74
2020/12/30 04:58:17;;;;;;;1.80;1.02;;;;;;;22.45;41.08;94406.84;5013644;28;20037;-73
2020/12/30 05:00:42;;;;;;;2.25;1.20;;;;;;;22.44;40.84;94389.06;5030931;28;20021;-74
2020/12/30 05:03:09;;;;;;;1.95;1.20;;;;;;;22.48;41.07;94422.13;5031095;28;20421;-74
2020/12/30 05:05:37;;;;;;;1.80;1.10;;;;;;;22.47;40.99;94404.38;5030134;28;20456;-75
2020/12/30 05:08:10;;;;;;;2.85;1.27;;;;;;;22.51;41.26;94388.44;5031052;28;20026;-74
2020/12/30 05:10:38;;;;;;;2.17;1.00;;;;;;;22.38;41.07;94385.69;5031093;28;20417;-75
2020/12/30 05:13:05;;;;;;;2.25;1.05;;;;;;;22.49;41.02;94386.25;5029878;28;20120;-74
2020/12/30 05:15:30;;;;;;;2.17;1.10;;;;;;;22.50;40.92;94400.59;5031280;28;20505;-75
2020/12/30 05:17:55;;;;;;;2.00;1.00;;;;;;;22.53;40.80;94358.75;5031050;28;20029;-74
2020/12/30 05:20:24;;;;;;;2.00;0.98;;;;;;;22.53;41.02;94426.78;5028461;28;20041;-75
2020/12/30 05:22:49;;;;;;;1.55;1.10;;;;;;;22.52;40.81;94384.47;5029646;28;20029;-75
2020/12/30 05:25:15;;;;;;;1.50;1.00;;;;;;;22.56;40.87;94390.38;5028753;28;20030;-75
2020/12/30 05:27:40;;;;;;;2.08;1.20;;;;;;;22.57;40.94;94397.25;5011477;28;20032;-74
2020/12/30 05:30:06;;;;;;;2.45;1.35;;;;;;;22.57;40.88;94380.94;5014133;28;20026;-75
2020/12/30 05:32:35;;;;;;;1.83;1.42;;;;;;;22.62;40.99;94378.13;5025955;28;20144;-74
2020/12/30 05:35:01;;;;;;;1.88;1.15;;;;;;;22.49;40.38;94331.09;5030951;28;20036;-79
2020/12/30 05:37:31;;;;;;;2.50;1.17;;;;;;;22.63;40.84;94367.97;5028159;28;20033;-75
2020/12/30 05:39:56;;;;;;;2.10;1.30;;;;;;;22.66;40.84;94359.53;5029086;28;20561;-75
2020/12/30 05:42:22;;;;;;;2.50;1.52;;;;;;;22.61;40.54;94359.59;5029614;28;20112;-74
2020/12/30 05:44:50;;;;;;;1.70;1.20;;;;;;;22.76;40.76;94317.03;5009732;28;20541;-73
2020/12/30 05:47:19;;;;;;;2.42;1.35;;;;;;;22.84;40.82;94377.03;5028757;28;20079;-77
2020/12/30 05:49:45;;;;;;;2.50;1.40;;;;;;;22.84;40.50;94328.03;5023697;28;20109;-77
2020/12/30 05:52:15;;;;;;;1.85;1.33;;;;;;;22.95;40.09;94359.28;5000272;28;20028;-77
2020/12/30 05:55:01;;;;;;;2.00;1.13;;;;;;;23.03;40.39;94378.44;5030083;28;20417;-75
2020/12/30 05:57:31;;;;;;;2.42;1.40;;;;;;;23.12;39.95;94376.06;5007033;28;20489;-74
2020/12/30 06:00:02;;;;;;;2.22;1.30;;;;;;;23.22;39.71;94358.03;5029885;28;20037;-75
2020/12/30 06:02:29;;;;;;;1.98;1.35;;;;;;;23.31;39.94;94376.69;5008838;28;20037;-74
2020/12/30 06:05:18;;;;;;;2.10;1.30;;;;;;;23.40;39.39;94395.34;5029661;28;20025;-82
2020/12/30 06:07:48;;;;;;;1.70;1.20;;;;;;;23.53;39.71;94370.84;5005608;28;20038;-83
2020/12/30 06:10:15;;;;;;;1.95;1.30;;;;;;;23.60;39.31;94372.91;5032494;28;20044;-84
2020/12/30 06:12:59;;;;;;;1.85;1.20;;;;;;;23.66;38.70;94379.00;5030086;28;20338;-87
2020/12/30 06:15:29;;;;;;;1.88;1.55;;;;;;;23.84;38.27;94389.06;5030096;28;20021;-84
2020/12/30 06:17:58;;;;;;;2.35;1.60;;;;;;;23.88;38.17;94385.50;5015331;28;20033;-84
2020/12/30 06:20:31;;;;;;;2.22;1.38;;;;;;;24.02;38.69;94367.84;5032626;28;20038;-87
2020/12/30 06:22:58;;;;;;;2.00;1.40;;;;;;;24.11;38.49;94413.78;5031538;28;20485;-88
2020/12/30 06:25:24;;;;;;;2.88;1.48;;;;;;;24.09;37.77;94372.63;5028457;28;20037;-85
2020/12/30 06:27:50;;;;;;;1.95;1.20;;;;;;;24.23;37.70;94397.88;4996616;28;20021;-85
2020/12/30 06:30:16;;;;;;;1.75;1.35;;;;;;;24.27;37.72;94401.75;4998352;28;20030;-82
2020/12/30 06:32:42;;;;;;;2.20;1.30;;;;;;;24.35;37.53;94416.25;4999664;28;20053;-86
2020/12/30 06:35:08;;;;;;;2.28;1.20;;;;;;;24.38;37.30;94415.19;4999271;28;20021;-85
2020/12/30 06:37:34;;;;;;;2.30;1.55;;;;;;;24.59;37.52;94424.88;5014586;28;20029;-85
2020/12/30 06:40:21;;;;;;;2.70;1.42;;;;;;;24.66;37.66;94413.28;5030953;28;20021;-77
2020/12/30 06:42:49;;;;;;;2.70;1.67;;;;;;;24.65;37.45;94394.69;5029929;28;20021;-79
2020/12/30 06:45:15;;;;;;;2.00;1.30;;;;;;;24.74;37.42;94427.00;5029736;28;20037;-82
2020/12/30 06:47:59;;;;;;;1.90;1.50;;;;;;;24.80;37.56;94433.06;5028666;28;20032;-81
2020/12/30 06:50:25;;;;;;;2.55;1.50;;;;;;;24.83;37.07;94433.47;5009903;28;20021;-77
2020/12/30 06:52:51;;;;;;;2.10;1.40;;;;;;;24.89;37.13;94430.63;4987299;28;20044;-75
2020/12/30 06:55:16;;;;;;;2.65;1.30;;;;;;;24.92;36.87;94437.75;5023704;28;20041;-72
2020/12/30 06:57:44;;;;;;;2.47;1.40;;;;;;;24.95;36.86;94434.69;5019336;28;20029;-71
2020/12/30 07:00:30;;;;;;;2.30;1.40;;;;;;;24.99;37.11;94440.59;5028298;28;20029;-70
2020/12/30 07:03:18;;;;;;;3.13;1.50;;;;;;;25.08;37.06;94453.03;5027721;28;20025;-70
2020/12/30 07:05:44;;;;;;;2.15;1.40;;;;;;;25.08;36.59;94448.31;5014827;28;20108;-70
2020/12/30 07:08:10;;;;;;;2.53;1.55;;;;;;;25.11;36.46;94452.72;5027985;28;20080;-69
2020/12/30 07:10:42;;;;;;;2.53;1.65;;;;;;;25.15;36.49;94458.56;5027524;28;20104;-71
2020/12/30 07:13:08;;;;;;;2.90;1.30;;;;;;;25.19;36.76;94452.78;5029749;28;20064;-72
2020/12/30 07:15:33;;;;;;;2.95;1.48;;;;;;;25.25;36.79;94456.81;5031426;28;20045;-69
2020/12/30 07:17:59;;;;;;;2.90;1.48;;;;;;;25.30;36.58;94469.59;5013819;28;20021;-69
2020/12/30 07:20:24;;;;;;;3.33;1.40;;;;;;;25.31;36.52;94476.56;5031659;28;20028;-69
2020/12/30 07:22:50;;;;;;;1.88;1.30;;;;;;;25.33;36.50;94474.75;5031512;28;20048;-69
2020/12/30 07:25:16;;;;;;;2.60;1.50;;;;;;;25.37;36.43;94458.00;5031457;28;20111;-69
2020/12/30 07:27:42;;;;;;;1.80;1.27;;;;;;;25.37;36.65;94463.47;5031354;28;20036;-69
2020/12/30 07:30:07;;;;;;;2.97;1.40;;;;;;;25.44;36.34;94485.41;5030878;28;20136;-70
2020/12/30 07:32:33;;;;;;;1.73;1.30;;;;;;;25.44;36.39;94468.25;5028891;28;20049;-69
2020/12/30 07:35:00;;;;;;;2.08;1.30;;;;;;;25.41;36.40;94469.31;5031677;28;20025;-70
2020/12/30 07:37:25;;;;;;;1.98;1.38;;;;;;;25.51;36.29;94462.13;5033462;28;20029;-68
2020/12/30 07:39:50;;;;;;;2.67;1.50;;;;;;;25.47;36.32;94424.19;5034156;28;20025;-71
2020/12/30 07:42:19;;;;;;;2.38;1.60;;;;;;;25.53;36.45;94432.22;5034338;28;20447;-68
2020/12/30 07:44:48;;;;;;;2.50;1.42;;;;;;;25.54;36.28;94455.56;5033713;28;20476;-71
2020/12/30 07:47:14;;;;;;;2.57;1.67;;;;;;;25.55;36.19;94457.06;5032006;28;20430;-70
2020/12/30 07:49:39;;;;;;;2.17;1.55;;;;;;;25.58;36.42;94455.97;5030451;28;20040;-71
2020/12/30 07:52:05;;;;;;;2.83;1.50;;;;;;;25.59;36.32;94454.69;5031620;28;20025;-78
2020/12/30 07:54:31;;;;;;;3.25;1.52;;;;;;;25.62;36.66;94459.09;5016008;28;20108;-77
2020/12/30 07:57:03;;;;;;;1.90;1.52;;;;;;;25.63;36.37;94468.75;5009428;28;20029;-72
2020/12/30 07:59:29;;;;;;;2.42;1.63;;;;;;;25.60;36.26;94458.91;5031032;28;20033;-70
2020/12/30 08:01:58;;;;;;;2.65;1.20;;;;;;;25.63;36.18;94446.88;5030509;28;20025;-74
2020/12/30 08:04:24;;;;;;;3.43;1.63;;;;;;;25.49;36.36;94440.06;5031907;28;20025;-74
2020/12/30 08:06:50;;;;;;;2.38;1.50;;;;;;;25.63;36.43;94471.50;5012309;28;20351;-70
2020/12/30 08:09:16;;;;;;;2.75;1.38;;;;;;;25.74;36.28;94468.50;5014865;28;20159;-79
2020/12/30 08:11:48;;;;;;;2.63;1.52;;;;;;;25.72;36.03;94466.28;5031486;28;20711;-78
2020/12/30 08:14:13;;;;;;;2.30;1.63;;;;;;;25.69;36.30;94459.16;5015196;28;20033;-79
2020/12/30 08:16:39;;;;;;;2.28;1.50;;;;;;;25.76;36.20;94465.97;5031683;28;20036;-73
2020/12/30 08:19:05;;;;;;;2.30;1.48;;;;;;;25.58;36.14;94445.03;5031761;28;20013;-74
2020/12/30 08:21:30;;;;;;;2.67;1.60;;;;;;;25.72;36.27;94465.56;5004721;28;20034;-72
2020/12/30 08:24:06;;;;;;;2.28;1.40;;;;;;;25.55;36.13;94440.66;5024922;28;20025;-75
2020/12/30 08:26:34;;;;;;;2.47;1.65;;;;;;;25.63;36.17;94441.41;5031702;28;20053;-73
2020/12/30 08:29:00;;;;;;;4.00;1.63;;;;;;;25.71;36.23;94453.91;5030515;28;20112;-74
2020/12/30 08:31:26;;;;;;;2.22;1.40;;;;;;;25.78;36.10;94457.94;5030710;28;20026;-75
2020/12/30 08:33:51;;;;;;;2.80;1.40;;;;;;;25.82;35.99;94459.78;5013181;28;20048;-74
2020/12/30 08:36:21;;;;;;;2.10;1.70;;;;;;;25.85;36.03;94458.72;4996352;28;20033;-72
2020/12/30 08:38:48;;;;;;;3.80;1.80;;;;;;;25.85;36.09;94455.97;5012519;28;20473;-71
2020/12/30 08:41:14;;;;;;;2.35;1.60;;;;;;;25.84;36.18;94440.84;5029952;28;20125;-71
2020/12/30 08:43:41;;;;;;;3.28;1.77;;;;;;;25.83;35.99;94428.44;4996110;28;20068;-73
2020/12/30 08:46:08;;;;;;;2.45;1.55;;;;;;;25.79;36.27;94453.97;5012342;28;20044;-72
2020/12/30 08:48:35;;;;;;;2.13;1.67;;;;;;;25.83;36.21;94433.91;5012429;28;20501;-70
2020/12/30 08:51:00;;;;;;;2.90;1.70;;;;;;;25.87;35.76;94422.63;5029415;28;20023;-73
2020/12/30 08:53:36;;;;;;;3.05;1.60;;;;;;;25.93;35.73;94410.25;5030273;28;20025;-71
2020/12/30 08:56:02;;;;;;;3.03;1.50;;;;;;;25.92;35.58;94425.22;5029946;28;20025;-71
2020/12/30 08:58:28;;;;;;;2.13;1.60;;;;;;;25.94;35.63;94422.66;5012624;28;20040;-71
2020/12/30 09:00:54;;;;;;;2.03;1.63;;;;;;;25.97;35.91;94418.84;5029843;28;20033;-71
2020/12/30 09:03:27;;;;;;;3.58;1.67;;;;;;;26.01;35.76;94399.34;5029401;28;20087;-71
2020/12/30 09:05:54;;;;;;;2.90;1.85;;;;;;;26.04;35.71;94404.47;5029536;28;20022;-73
2020/12/30 09:08:21;;;;;;;2.63;1.70;;;;;;;26.03;35.75;94413.94;5008459;28;20037;-72
2020/12/30 09:10:47;;;;;;;3.78;1.83;;;;;;;26.02;35.66;94404.28;5005693;28;20033;-73
2020/12/30 09:13:12;;;;;;;2.53;1.70;;;;;;;26.08;35.55;94399.34;5028304;28;20047;-75
2020/12/30 09:15:40;;;;;;;2.95;1.75;;;;;;;26.04;35.38;94390.78;5026646;28;20032;-80
2020/12/30 09:18:06;;;;;;;3.45;1.90;;;;;;;26.13;35.44;94384.03;5015674;28;20021;-80
2020/12/30 09:20:34;;;;;;;2.67;1.63;;;;;;;26.10;35.55;94394.09;5013537;28;20032;-75
2020/12/30 09:23:00;;;;;;;2.50;1.55;;;;;;;26.07;35.64;94403.38;5026834;28;20036;-75
2020/12/30 09:25:30;;;;;;;3.33;1.95;;;;;;;26.12;35.26;94399.75;5012490;28;20033;-75
2020/12/30 09:27:57;;;;;;;2.88;1.67;;;;;;;25.99;35.34;94369.78;5028583;28;20033;-74
2020/12/30 09:30:26;;;;;;;2.53;1.73;;;;;;;26.14;35.45;94391.72;5012426;28;20052;-74
2020/12/30 09:32:55;;;;;;;3.63;1.83;;;;;;;26.15;35.44;94387.72;5024732;28;20050;-76
2020/12/30 09:35:29;;;;;;;4.45;1.90;;;;;;;26.16;35.67;94377.50;5030697;28;20037;-75
2020/12/30 09:37:56;;;;;;;3.50;1.70;;;;;;;26.15;35.58;94382.25;5030138;28;20410;-76
2020/12/30 09:40:22;;;;;;;3.13;1.67;;;;;;;26.10;35.36;94394.09;5013315;28;20498;-74
2020/12/30 09:42:47;;;;;;;3.15;1.67;;;;;;;26.20;35.44;94384.06;5012422;28;20041;-73
2020/12/30 09:45:14;;;;;;;4.85;1.90;;;;;;;26.20;35.18;94373.13;5028392;28;20026;-75
2020/12/30 09:47:39;;;;;;;3.00;1.70;;;;;;;26.23;35.22;94372.03;5029258;28;20178;-75
2020/12/30 09:50:06;;;;;;;2.95;1.45;;;;;;;26.24;35.19;94373.50;5028849;28;20422;-73
2020/12/30 09:52:38;;;;;;;2.88;1.70;;;;;;;26.26;35.53;94375.69;5011446;28;20072;-74
2020/12/30 09:55:04;;;;;;;3.17;1.90;;;;;;;26.23;35.40;94383.00;5029343;28;20076;-76
2020/12/30 09:57:30;;;;;;;2.50;1.60;;;;;;;26.20;35.35;94373.13;5012279;28;20477;-75
2020/12/30 09:59:56;;;;;;;3.10;1.95;;;;;;;26.28;35.32;94376.66;5012718;28;20022;-74
2020/12/30 10:02:21;;;;;;;3.15;1.73;;;;;;;26.31;35.18;94379.03;5011105;28;20051;-73
2020/12/30 10:04:46;;;;;;;4.70;2.20;;;;;;;26.17;35.65;94351.59;5010722;28;20045;-75
2020/12/30 10:07:12;;;;;;;3.72;2.28;;;;;;;26.36;35.25;94363.72;4994941;28;20033;-75
2020/12/30 10:09:38;;;;;;;4.00;2.10;;;;;;;26.36;35.36;94347.28;5008007;28;20047;-70
2020/12/30 10:12:03;;;;;;;3.75;1.95;;;;;;;26.44;35.05;94348.78;5028355;28;20028;-70
2020/12/30 10:14:30;;;;;;;4.22;1.90;;;;;;;26.47;35.32;94368.84;5028618;28;20053;-69
2020/12/30 10:16:55;;;;;;;4.45;1.95;;;;;;;26.43;35.37;94341.09;5028533;28;20438;-70
2020/12/30 10:19:21;;;;;;;3.42;1.80;;;;;;;26.51;35.21;94352.78;4994256;28;20029;-71
2020/12/30 10:21:46;;;;;;;4.03;2.05;;;;;;;26.42;35.37;94342.38;5010356;28;20048;-71
2020/12/30 10:24:12;;;;;;;3.63;1.90;;;;;;;26.50;35.06;94340.38;5028000;28;20421;-73
2020/12/30 10:26:37;;;;;;;3.75;2.50;;;;;;;26.50;35.40;94334.88;5010926;28;20040;-73
2020/12/30 10:29:03;;;;;;;3.60;2.10;;;;;;;26.47;35.56;94325.03;5028117;28;20029;-73
2020/12/30 10:31:28;;;;;;;3.97;2.22;;;;;;;26.27;35.81;94306.00;5028521;28;20102;-73
2020/12/30 10:33:54;;;;;;;4.22;2.22;;;;;;;26.44;35.72;94331.59;5010955;28;20564;-72
2020/12/30 10:36:20;;;;;;;3.65;1.70;;;;;;;26.27;35.64;94309.47;5028649;28;20037;-73
2020/12/30 10:38:45;;;;;;;3.13;2.08;;;;;;;26.53;35.39;94328.31;5028105;28;20734;-76
2020/12/30 10:41:17;;;;;;;2.92;1.88;;;;;;;26.49;35.38;94322.50;5027675;28;20025;-73
2020/12/30 10:43:43;;;;;;;3.97;2.00;;;;;;;26.53;35.52;94328.31;5027583;28;20091;-71
2020/12/30 10:46:17;;;;;;;3.20;1.98;;;;;;;26.42;35.37;94306.78;5027521;28;20478;-70
2020/12/30 10:48:43;;;;;;;4.25;2.10;;;;;;;26.57;35.72;94318.47;5029245;28;20025;-70
2020/12/30 10:51:16;;;;;;;4.07;2.10;;;;;;;26.57;35.26;94328.69;5032058;28;20113;-71
2020/12/30 10:53:41;;;;;;;4.03;2.10;;;;;;;26.54;35.53;94313.38;5031779;28;20422;-71
2020/12/30 10:56:08;;;;;;;4.20;2.00;;;;;;;26.57;35.57;94312.28;5031876;28;20026;-70
2020/12/30 10:58:33;;;;;;;3.03;1.80;;;;;;;26.62;35.36;94319.56;5032516;28;20025;-70
2020/12/30 11:00:59;;;;;;;3.20;1.92;;;;;;;26.62;35.86;94319.56;5031359;28;20858;-70
2020/12/30 11:03:24;;;;;;;3.42;2.13;;;;;;;26.62;35.80;94314.09;5032009;28;20055;-70
2020/12/30 11:05:50;;;;;;;3.78;1.92;;;;;;;26.62;35.50;94308.63;5014323;28;20041;-73
2020/12/30 11:08:15;;;;;;;2.90;2.05;;;;;;;26.64;35.70;94322.50;5031755;28;20429;-71
2020/12/30 11:10:41;;;;;;;3.63;2.20;;;;;;;26.66;35.48;94309.00;5031576;28;20018;-70
2020/12/30 11:13:06;;;;;;;3.00;1.77;;;;;;;26.66;36.07;94303.50;5031579;28;20026;-72
2020/12/30 11:15:35;;;;;;;3.33;2.05;;;;;;;26.50;35.64;94275.41;5028648;28;20045;-71
2020/12/30 11:18:01;;;;;;;3.67;2.00;;;;;;;26.54;35.71;94286.69;5014208;28;20580;-72
2020/12/30 11:20:26;;;;;;;3.35;2.00;;;;;;;26.61;35.33;94290.72;5013651;28;20394;-70
2020/12/30 11:22:52;;;;;;;4.07;1.90;;;;;;;26.65;35.51;94291.84;5031148;28;20040;-70
2020/12/30 11:25:20;;;;;;;3.85;2.00;;;;;;;26.65;35.44;94296.56;5030156;28;20040;-70
2020/12/30 11:27:46;;;;;;;3.35;1.90;;;;;;;26.70;35.52;94298.41;5030793;28;20043;-69
2020/12/30 11:30:11;;;;;;;5.10;2.20;;;;;;;26.76;35.63;94298.94;5030861;28;20030;-70
2020/12/30 11:32:39;;;;;;;3.47;1.92;;;;;;;26.76;35.43;94278.47;5027747;28;20776;-69